^^
Datos históricos de la estación: Murcia-Puente Tocinos
Diario Informe para Junio 19, 2019 Unidades:  Ambas    Inglés   Métrico
Diario Semanal Mensual Anual Configurable
  Máximo: Mínimo: Media:
Temperatura: 92.1 °F /  33.4 °C 67.3 °F /  19.6 °C 79.5 °F /  26.4 °C
Punto de rocio: 64.6 °F /  18.1 °C 47.1 °F /  8.4 °C 56.8 °F /  13.8 °C
Humedad: 85% 23% 52%
Velocidad viento: 12.3mph /  19.8km/h - 5.3mph /  8.6km/h
Racha viento: 20.1mph /  32.3km/h - -
Viento- - SSE
Presión: 29.9 in /  1012.9 hPa 29.8 in /  1008.7 hPa -
Precipitación: 0 in /  0.0 mm    
Historical Graphs
 
 
Tabla de datos para Junio 19, 2019
Hora Temperatura Punto de rocio Presión Viento Velocidad viento Racha viento Humedad Intensidad lluvia(por hora) Nubes
00:04 70.5 °F /  21.4 °C 63.3 °F /  17.4 °C 29.9in /  1012.7hPa NNE 5.2mph /  8.4km/h 5.8mph /  9.3km/h 78% 0in /  0.0mm CLR
00:09 70.5 °F /  21.4 °C 63.7 °F /  17.6 °C 29.9in /  1012.7hPa NNE 4mph /  6.4km/h 8.1mph /  13.0km/h 79% 0in /  0.0mm CLR
00:14 70.3 °F /  21.3 °C 63.5 °F /  17.5 °C 29.9in /  1012.7hPa NNE 4mph /  6.4km/h 6.2mph /  10.0km/h 79% 0in /  0.0mm CLR
00:19 70.3 °F /  21.3 °C 63.5 °F /  17.5 °C 29.9in /  1012.9hPa NNE 4.3mph /  6.9km/h 5.8mph /  9.3km/h 79% 0in /  0.0mm CLR
00:24 70.2 °F /  21.2 °C 63.7 °F /  17.6 °C 29.9in /  1012.9hPa NE 4.3mph /  6.9km/h 5.2mph /  8.4km/h 80% 0in /  0.0mm CLR
00:29 70.2 °F /  21.2 °C 64 °F /  17.8 °C 29.9in /  1012.9hPa NE 4.3mph /  6.9km/h 6.9mph /  11.1km/h 81% 0in /  0.0mm CLR
00:34 70 °F /  21.1 °C 63.9 °F /  17.7 °C 29.9in /  1012.8hPa NE 4.3mph /  6.9km/h 6.9mph /  11.1km/h 81% 0in /  0.0mm CLR
00:39 70 °F /  21.1 °C 63.9 °F /  17.7 °C 29.9in /  1012.8hPa NNE 5.2mph /  8.4km/h 6.2mph /  10.0km/h 81% 0in /  0.0mm CLR
00:44 69.8 °F /  21.0 °C 64 °F /  17.8 °C 29.9in /  1012.8hPa NE 5.2mph /  8.4km/h 8.1mph /  13.0km/h 82% 0in /  0.0mm CLR
00:49 69.6 °F /  20.9 °C 63.9 °F /  17.7 °C 29.9in /  1012.6hPa North 4mph /  6.4km/h 6.2mph /  10.0km/h 82% 0in /  0.0mm CLR
00:54 69.6 °F /  20.9 °C 63.9 °F /  17.7 °C 29.9in /  1012.6hPa NE 4mph /  6.4km/h 5.8mph /  9.3km/h 82% 0in /  0.0mm CLR
00:59 69.6 °F /  20.9 °C 63.9 °F /  17.7 °C 29.9in /  1012.6hPa NNE 3.6mph /  5.8km/h 6.2mph /  10.0km/h 82% 0in /  0.0mm CLR
01:04 69.6 °F /  20.9 °C 63.9 °F /  17.7 °C 29.9in /  1012.6hPa North 3.6mph /  5.8km/h 5.8mph /  9.3km/h 82% 0in /  0.0mm CLR
01:09 69.4 °F /  20.8 °C 64 °F /  17.8 °C 29.9in /  1012.6hPa NE 3.6mph /  5.8km/h 4.6mph /  7.4km/h 83% 0in /  0.0mm CLR
01:14 69.3 °F /  20.7 °C 63.9 °F /  17.7 °C 29.9in /  1012.6hPa NNE 3.6mph /  5.8km/h 4.7mph /  7.6km/h 83% 0in /  0.0mm CLR
01:19 69.3 °F /  20.7 °C 63.9 °F /  17.7 °C 29.9in /  1012.5hPa NNE 3.1mph /  5.0km/h 4.6mph /  7.4km/h 83% 0in /  0.0mm CLR
01:24 69.1 °F /  20.6 °C 64 °F /  17.8 °C 29.9in /  1012.5hPa NNE 3.1mph /  5.0km/h 4.6mph /  7.4km/h 84% 0in /  0.0mm CLR
01:29 69.1 °F /  20.6 °C 64 °F /  17.8 °C 29.9in /  1012.5hPa NE 2mph /  3.2km/h 3.1mph /  5.0km/h 84% 0in /  0.0mm CLR
01:34 69.1 °F /  20.6 °C 64 °F /  17.8 °C 29.9in /  1012.4hPa NE 2mph /  3.2km/h   84% 0in /  0.0mm CLR
01:39 69.1 °F /  20.6 °C 64 °F /  17.8 °C 29.9in /  1012.4hPa NNE 1.4mph /  2.3km/h 2.3mph /  3.7km/h 84% 0in /  0.0mm CLR
01:44 69.1 °F /  20.6 °C 64 °F /  17.8 °C 29.9in /  1012.4hPa NNE 1.4mph /  2.3km/h   84% 0in /  0.0mm CLR
01:49 69.1 °F /  20.6 °C 64 °F /  17.8 °C 29.9in /  1012.5hPa Calm   3.1mph /  5.0km/h 84% 0in /  0.0mm CLR
01:54 69.1 °F /  20.6 °C 64 °F /  17.8 °C 29.9in /  1012.5hPa Calm   2.4mph /  3.9km/h 84% 0in /  0.0mm CLR
01:59 69.1 °F /  20.6 °C 64 °F /  17.8 °C 29.9in /  1012.5hPa NW 1.8mph /  2.9km/h 3.5mph /  5.6km/h 84% 0in /  0.0mm CLR
02:04 69.1 °F /  20.6 °C 64 °F /  17.8 °C 29.9in /  1012.4hPa NW 1.8mph /  2.9km/h 3.5mph /  5.6km/h 84% 0in /  0.0mm CLR
02:09 69.1 °F /  20.6 °C 64 °F /  17.8 °C 29.9in /  1012.4hPa NW 1.8mph /  2.9km/h 2mph /  3.2km/h 84% 0in /  0.0mm CLR
02:14 69.1 °F /  20.6 °C 64 °F /  17.8 °C 29.9in /  1012.4hPa NW 1.8mph /  2.9km/h 2.3mph /  3.7km/h 84% 0in /  0.0mm CLR
02:19 69.1 °F /  20.6 °C 64 °F /  17.8 °C 29.9in /  1012.4hPa Calm   1.4mph /  2.3km/h 84% 0in /  0.0mm CLR
02:24 69.1 °F /  20.6 °C 64 °F /  17.8 °C 29.9in /  1012.4hPa Calm     84% 0in /  0.0mm CLR
02:29 69.1 °F /  20.6 °C 64 °F /  17.8 °C 29.9in /  1012.4hPa Calm     84% 0in /  0.0mm CLR
02:34 69.1 °F /  20.6 °C 64 °F /  17.8 °C 29.9in /  1012.3hPa Calm     84% 0in /  0.0mm CLR
02:39 69.1 °F /  20.6 °C 64 °F /  17.8 °C 29.9in /  1012.3hPa Calm     84% 0in /  0.0mm CLR
02:44 68.9 °F /  20.5 °C 64.2 °F /  17.9 °C 29.9in /  1012.3hPa Calm     85% 0in /  0.0mm CLR
02:49 68.9 °F /  20.5 °C 63.9 °F /  17.7 °C 29.9in /  1012.1hPa Calm   3.5mph /  5.6km/h 84% 0in /  0.0mm CLR
02:54 68.9 °F /  20.5 °C 63.5 °F /  17.5 °C 29.9in /  1012.1hPa Calm   4.3mph /  6.9km/h 83% 0in /  0.0mm CLR
02:59 68.7 °F /  20.4 °C 63 °F /  17.2 °C 29.9in /  1012.1hPa SSW 2.9mph /  4.7km/h 5.8mph /  9.3km/h 82% 0in /  0.0mm CLR
03:04 68.9 °F /  20.5 °C 61.9 °F /  16.6 °C 29.9in /  1012.1hPa WSW 2.9mph /  4.7km/h 6.9mph /  11.1km/h 78% 0in /  0.0mm CLR
03:09 69.1 °F /  20.6 °C 61.5 °F /  16.4 °C 29.9in /  1012.1hPa SSW 4.3mph /  6.9km/h 6.9mph /  11.1km/h 77% 0in /  0.0mm CLR
03:14 69.3 °F /  20.7 °C 61.7 °F /  16.5 °C 29.9in /  1012.1hPa SSW 4.3mph /  6.9km/h 6.4mph /  10.3km/h 77% 0in /  0.0mm CLR
03:19 69.3 °F /  20.7 °C 61.7 °F /  16.5 °C 29.9in /  1012.1hPa SW 4.3mph /  6.9km/h 4.6mph /  7.4km/h 77% 0in /  0.0mm CLR
03:24 69.3 °F /  20.7 °C 61.7 °F /  16.5 °C 29.9in /  1012.1hPa SSW 4.3mph /  6.9km/h 5.8mph /  9.3km/h 77% 0in /  0.0mm CLR
03:29 69.3 °F /  20.7 °C 62.1 °F /  16.7 °C 29.9in /  1012.1hPa WSW 3.6mph /  5.8km/h 5.2mph /  8.4km/h 78% 0in /  0.0mm CLR
03:34 69.1 °F /  20.6 °C 62.2 °F /  16.8 °C 29.9in /  1012.0hPa WSW 3.6mph /  5.8km/h 4.6mph /  7.4km/h 79% 0in /  0.0mm CLR
03:39 69.1 °F /  20.6 °C 62.2 °F /  16.8 °C 29.9in /  1012.0hPa SSE 3.6mph /  5.8km/h 6.9mph /  11.1km/h 79% 0in /  0.0mm CLR
03:44 68.9 °F /  20.5 °C 62.4 °F /  16.9 °C 29.9in /  1012.0hPa SW 3.6mph /  5.8km/h 4.6mph /  7.4km/h 80% 0in /  0.0mm CLR
03:49 68.7 °F /  20.4 °C 62.2 °F /  16.8 °C 29.9in /  1011.9hPa WSW 4mph /  6.4km/h 4.7mph /  7.6km/h 80% 0in /  0.0mm CLR
03:54 68.7 °F /  20.4 °C 62.2 °F /  16.8 °C 29.9in /  1011.9hPa WSW 4mph /  6.4km/h 5.8mph /  9.3km/h 80% 0in /  0.0mm CLR
03:59 68.7 °F /  20.4 °C 62.2 °F /  16.8 °C 29.9in /  1011.9hPa WSW 4mph /  6.4km/h 5.2mph /  8.4km/h 80% 0in /  0.0mm CLR
04:04 68.7 °F /  20.4 °C 62.2 °F /  16.8 °C 29.9in /  1012.0hPa WSW 4mph /  6.4km/h 8.1mph /  13.0km/h 80% 0in /  0.0mm CLR
04:09 68.7 °F /  20.4 °C 62.8 °F /  17.1 °C 29.9in /  1012.0hPa WSW 4mph /  6.4km/h 6.9mph /  11.1km/h 81% 0in /  0.0mm CLR
04:14 68.7 °F /  20.4 °C 62.8 °F /  17.1 °C 29.9in /  1012.0hPa SW 4mph /  6.4km/h 10.4mph /  16.7km/h 81% 0in /  0.0mm CLR
04:19 68.5 °F /  20.3 °C 62.8 °F /  17.1 °C 29.9in /  1011.8hPa SW 4.3mph /  6.9km/h 10mph /  16.1km/h 82% 0in /  0.0mm CLR
04:24 68.4 °F /  20.2 °C 62.6 °F /  17.0 °C 29.9in /  1011.8hPa WSW 4.3mph /  6.9km/h 6.9mph /  11.1km/h 82% 0in /  0.0mm CLR
04:29 68.4 °F /  20.2 °C 63 °F /  17.2 °C 29.9in /  1011.8hPa WSW 5.4mph /  8.7km/h 8.1mph /  13.0km/h 83% 0in /  0.0mm CLR
04:34 68.2 °F /  20.1 °C 62.8 °F /  17.1 °C 29.9in /  1011.7hPa West 5.4mph /  8.7km/h 9.2mph /  14.8km/h 83% 0in /  0.0mm CLR
04:39 68.2 °F /  20.1 °C 62.8 °F /  17.1 °C 29.9in /  1011.7hPa WSW 5.9mph /  9.5km/h 5.8mph /  9.3km/h 83% 0in /  0.0mm CLR
04:44 68.2 °F /  20.1 °C 62.8 °F /  17.1 °C 29.9in /  1011.7hPa SW 5.9mph /  9.5km/h 5.8mph /  9.3km/h 83% 0in /  0.0mm CLR
04:49 68.4 °F /  20.2 °C 63 °F /  17.2 °C 29.9in /  1011.8hPa WNW 4.3mph /  6.9km/h 5.8mph /  9.3km/h 83% 0in /  0.0mm CLR
04:54 68.2 °F /  20.1 °C 62.8 °F /  17.1 °C 29.9in /  1011.8hPa SW 4.3mph /  6.9km/h 6.9mph /  11.1km/h 83% 0in /  0.0mm CLR
04:59 68.2 °F /  20.1 °C 62.8 °F /  17.1 °C 29.9in /  1011.8hPa SW 4.3mph /  6.9km/h 4.7mph /  7.6km/h 83% 0in /  0.0mm CLR
05:04 68.2 °F /  20.1 °C 62.8 °F /  17.1 °C 29.9in /  1011.8hPa SW 4.3mph /  6.9km/h 6.2mph /  10.0km/h 83% 0in /  0.0mm CLR
05:09 68.2 °F /  20.1 °C 62.4 °F /  16.9 °C 29.9in /  1011.8hPa SSW 3.6mph /  5.8km/h 6.9mph /  11.1km/h 82% 0in /  0.0mm CLR
05:14 68.2 °F /  20.1 °C 62.8 °F /  17.1 °C 29.9in /  1011.8hPa SW 3.6mph /  5.8km/h 3.5mph /  5.6km/h 83% 0in /  0.0mm CLR
05:19 68 °F /  20.0 °C 62.2 °F /  16.8 °C 29.9in /  1011.8hPa SW 3.1mph /  5.0km/h 7.4mph /  11.9km/h 82% 0in /  0.0mm CLR
05:24 67.8 °F /  19.9 °C 62.1 °F /  16.7 °C 29.9in /  1011.8hPa SSW 3.1mph /  5.0km/h 6.9mph /  11.1km/h 82% 0in /  0.0mm CLR
05:29 67.8 °F /  19.9 °C 61.9 °F /  16.6 °C 29.9in /  1011.8hPa SW 5.2mph /  8.4km/h 6.4mph /  10.3km/h 81% 0in /  0.0mm CLR
05:34 67.8 °F /  19.9 °C 61.9 °F /  16.6 °C 29.9in /  1011.8hPa South 5.2mph /  8.4km/h 5.2mph /  8.4km/h 81% 0in /  0.0mm CLR
05:39 67.8 °F /  19.9 °C 61.3 °F /  16.3 °C 29.9in /  1011.8hPa South 4.3mph /  6.9km/h 6.4mph /  10.3km/h 80% 0in /  0.0mm CLR
05:44 67.8 °F /  19.9 °C 61.9 °F /  16.6 °C 29.9in /  1011.8hPa SSW 4.3mph /  6.9km/h 6.9mph /  11.1km/h 81% 0in /  0.0mm CLR
05:49 67.8 °F /  19.9 °C 62.1 °F /  16.7 °C 29.9in /  1011.8hPa SSW 5.2mph /  8.4km/h 6.9mph /  11.1km/h 82% 0in /  0.0mm CLR
05:54 67.8 °F /  19.9 °C 62.1 °F /  16.7 °C 29.9in /  1011.8hPa SSW 5.2mph /  8.4km/h 5.8mph /  9.3km/h 82% 0in /  0.0mm CLR
05:59 67.6 °F /  19.8 °C 61.9 °F /  16.6 °C 29.9in /  1011.8hPa SSW 4.3mph /  6.9km/h 5.8mph /  9.3km/h 82% 0in /  0.0mm CLR
06:04 67.6 °F /  19.8 °C 61.9 °F /  16.6 °C 29.9in /  1011.9hPa SW 4.3mph /  6.9km/h 8.1mph /  13.0km/h 82% 0in /  0.0mm CLR
06:09 67.5 °F /  19.7 °C 61.9 °F /  16.6 °C 29.9in /  1011.9hPa WSW 5.2mph /  8.4km/h 6.9mph /  11.1km/h 82% 0in /  0.0mm CLR
06:14 67.5 °F /  19.7 °C 61.9 °F /  16.6 °C 29.9in /  1011.9hPa SW 5.2mph /  8.4km/h 5.8mph /  9.3km/h 82% 0in /  0.0mm CLR
06:19 67.5 °F /  19.7 °C 61.9 °F /  16.6 °C 29.9in /  1011.9hPa WSW 4.7mph /  7.6km/h 8.1mph /  13.0km/h 82% 0in /  0.0mm CLR
06:24 67.5 °F /  19.7 °C 61.9 °F /  16.6 °C 29.9in /  1011.9hPa SW 4.7mph /  7.6km/h 5.8mph /  9.3km/h 82% 0in /  0.0mm CLR
06:29 67.5 °F /  19.7 °C 61.9 °F /  16.6 °C 29.9in /  1011.9hPa SSW 4.3mph /  6.9km/h 6.9mph /  11.1km/h 82% 0in /  0.0mm CLR
06:34 67.5 °F /  19.7 °C 61.3 °F /  16.3 °C 29.9in /  1011.9hPa SW 4.3mph /  6.9km/h 5.8mph /  9.3km/h 81% 0in /  0.0mm CLR
06:39 67.3 °F /  19.6 °C 61 °F /  16.1 °C 29.9in /  1011.9hPa SW 4.3mph /  6.9km/h 8.1mph /  13.0km/h 80% 0in /  0.0mm CLR
06:44 67.3 °F /  19.6 °C 61 °F /  16.1 °C 29.9in /  1011.9hPa WSW 4.3mph /  6.9km/h 6.9mph /  11.1km/h 80% 0in /  0.0mm CLR
06:49 67.5 °F /  19.7 °C 60.6 °F /  15.9 °C 29.9in /  1011.8hPa WSW 5.2mph /  8.4km/h 8.1mph /  13.0km/h 79% 0in /  0.0mm CLR
06:54 67.5 °F /  19.7 °C 60.6 °F /  15.9 °C 29.9in /  1011.8hPa West 5.2mph /  8.4km/h 7.4mph /  11.9km/h 79% 0in /  0.0mm CLR
06:59 67.5 °F /  19.7 °C 60.6 °F /  15.9 °C 29.9in /  1011.8hPa SW 4mph /  6.4km/h 5.4mph /  8.7km/h 79% 0in /  0.0mm CLR
07:04 67.5 °F /  19.7 °C 60.1 °F /  15.6 °C 29.9in /  1011.8hPa WNW 4mph /  6.4km/h 5.8mph /  9.3km/h 77% 0in /  0.0mm CLR
07:09 67.6 °F /  19.8 °C 60.3 °F /  15.7 °C 29.9in /  1011.8hPa WSW 4.3mph /  6.9km/h 6.9mph /  11.1km/h 77% 0in /  0.0mm CLR
07:14 67.6 °F /  19.8 °C 60.3 °F /  15.7 °C 29.9in /  1011.8hPa SW 4.3mph /  6.9km/h 5.8mph /  9.3km/h 77% 0in /  0.0mm CLR
07:19 67.8 °F /  19.9 °C 60.3 °F /  15.7 °C 29.9in /  1011.9hPa SW 4mph /  6.4km/h 2.4mph /  3.9km/h 77% 0in /  0.0mm CLR
07:24 67.8 °F /  19.9 °C 60.3 °F /  15.7 °C 29.9in /  1011.9hPa WSW 4mph /  6.4km/h 6.9mph /  11.1km/h 77% 0in /  0.0mm CLR
07:29 68.2 °F /  20.1 °C 60.3 °F /  15.7 °C 29.9in /  1011.9hPa SW 3.1mph /  5.0km/h 5.2mph /  8.4km/h 76% 0in /  0.0mm CLR
07:34 68.2 °F /  20.1 °C 60.3 °F /  15.7 °C 29.9in /  1011.9hPa WSW 3.1mph /  5.0km/h 9.2mph /  14.8km/h 76% 0in /  0.0mm CLR
07:39 68.4 °F /  20.2 °C 60.1 °F /  15.6 °C 29.9in /  1011.9hPa South 4.7mph /  7.6km/h 5.8mph /  9.3km/h 75% 0in /  0.0mm CLR
07:44 68.5 °F /  20.3 °C 60.3 °F /  15.7 °C 29.9in /  1011.9hPa SSW 4.7mph /  7.6km/h 5.9mph /  9.5km/h 75% 0in /  0.0mm CLR
07:49 68.7 °F /  20.4 °C 60.1 °F /  15.6 °C 29.9in /  1012.0hPa SSW 4.3mph /  6.9km/h 8.1mph /  13.0km/h 74% 0in /  0.0mm CLR
07:54 68.9 °F /  20.5 °C 59.9 °F /  15.5 °C 29.9in /  1012.0hPa SSW 4.3mph /  6.9km/h 7.4mph /  11.9km/h 73% 0in /  0.0mm CLR
07:59 68.9 °F /  20.5 °C 59.9 °F /  15.5 °C 29.9in /  1012.0hPa SW 5.4mph /  8.7km/h 8.1mph /  13.0km/h 73% 0in /  0.0mm CLR
08:04 69.1 °F /  20.6 °C 59.7 °F /  15.4 °C 29.9in /  1012.1hPa WSW 5.4mph /  8.7km/h 5.8mph /  9.3km/h 72% 0in /  0.0mm CLR
08:09 69.3 °F /  20.7 °C 59.7 °F /  15.4 °C 29.9in /  1012.1hPa WSW 4.3mph /  6.9km/h 6.9mph /  11.1km/h 72% 0in /  0.0mm CLR
08:14 69.6 °F /  20.9 °C 60.3 °F /  15.7 °C 29.9in /  1012.1hPa West 4.3mph /  6.9km/h 6.9mph /  11.1km/h 72% 0in /  0.0mm CLR
08:19 69.6 °F /  20.9 °C 59.7 °F /  15.4 °C 29.9in /  1012.2hPa WSW 4.3mph /  6.9km/h 8.1mph /  13.0km/h 71% 0in /  0.0mm CLR
08:24 70 °F /  21.1 °C 59.7 °F /  15.4 °C 29.9in /  1012.2hPa SW 4.3mph /  6.9km/h 5.9mph /  9.5km/h 70% 0in /  0.0mm CLR
08:29 70.3 °F /  21.3 °C 59.7 °F /  15.4 °C 29.9in /  1012.2hPa SSW 4.3mph /  6.9km/h 4.6mph /  7.4km/h 69% 0in /  0.0mm CLR
08:34 70.9 °F /  21.6 °C 59.7 °F /  15.4 °C 29.9in /  1012.2hPa WSW 4.3mph /  6.9km/h 6.9mph /  11.1km/h 68% 0in /  0.0mm CLR
08:39 71.1 °F /  21.7 °C 59.5 °F /  15.3 °C 29.9in /  1012.2hPa West 4mph /  6.4km/h 4.6mph /  7.4km/h 67% 0in /  0.0mm CLR
08:44 71.4 °F /  21.9 °C 59 °F /  15.0 °C 29.9in /  1012.2hPa WSW 4mph /  6.4km/h 6.9mph /  11.1km/h 65% 0in /  0.0mm CLR
08:49 72 °F /  22.2 °C 58.6 °F /  14.8 °C 29.9in /  1012.2hPa WSW 4.7mph /  7.6km/h 6.9mph /  11.1km/h 63% 0in /  0.0mm CLR
08:54 72.5 °F /  22.5 °C 58.6 °F /  14.8 °C 29.9in /  1012.2hPa WSW 4.7mph /  7.6km/h 6.9mph /  11.1km/h 62% 0in /  0.0mm CLR
08:59 73 °F /  22.8 °C 58.8 °F /  14.9 °C 29.9in /  1012.2hPa SSW 4.3mph /  6.9km/h 4.6mph /  7.4km/h 61% 0in /  0.0mm CLR
09:04 73.8 °F /  23.2 °C 58.5 °F /  14.7 °C 29.9in /  1012.2hPa South 4.3mph /  6.9km/h 4.6mph /  7.4km/h 59% 0in /  0.0mm CLR
09:09 74.1 °F /  23.4 °C 58.5 °F /  14.7 °C 29.9in /  1012.2hPa SSW 3.6mph /  5.8km/h 8.1mph /  13.0km/h 58% 0in /  0.0mm CLR
09:14 74.7 °F /  23.7 °C 57.4 °F /  14.1 °C 29.9in /  1012.2hPa SW 3.6mph /  5.8km/h 6.9mph /  11.1km/h 55% 0in /  0.0mm CLR
09:19 75.2 °F /  24.0 °C 57.9 °F /  14.4 °C 29.9in /  1012.1hPa SSW 5.2mph /  8.4km/h 5.2mph /  8.4km/h 55% 0in /  0.0mm CLR
09:24 75.7 °F /  24.3 °C 56.8 °F /  13.8 °C 29.9in /  1012.1hPa SSW 5.2mph /  8.4km/h 6.9mph /  11.1km/h 52% 0in /  0.0mm CLR
09:29 76.3 °F /  24.6 °C 57.9 °F /  14.4 °C 29.9in /  1012.1hPa SW 5.2mph /  8.4km/h 6.9mph /  11.1km/h 53% 0in /  0.0mm CLR
09:34 76.5 °F /  24.7 °C 56.5 °F /  13.6 °C 29.9in /  1012.1hPa SW 5.2mph /  8.4km/h 9.2mph /  14.8km/h 50% 0in /  0.0mm CLR
09:39 76.8 °F /  24.9 °C 57.4 °F /  14.1 °C 29.9in /  1012.1hPa SSW 5.4mph /  8.7km/h 6.9mph /  11.1km/h 51% 0in /  0.0mm CLR
09:44 77.2 °F /  25.1 °C 56.5 °F /  13.6 °C 29.9in /  1012.1hPa West 5.4mph /  8.7km/h 5.8mph /  9.3km/h 49% 0in /  0.0mm CLR
09:49 77.5 °F /  25.3 °C 56.3 °F /  13.5 °C 29.9in /  1012.1hPa South 4mph /  6.4km/h 6.9mph /  11.1km/h 48% 0in /  0.0mm CLR
09:54 77.7 °F /  25.4 °C 54.7 °F /  12.6 °C 29.9in /  1012.1hPa SW 4mph /  6.4km/h 8.1mph /  13.0km/h 45% 0in /  0.0mm CLR
09:59 77.9 °F /  25.5 °C 54.9 °F /  12.7 °C 29.9in /  1012.1hPa WSW 4.7mph /  7.6km/h 5.8mph /  9.3km/h 45% 0in /  0.0mm CLR
10:04 78.3 °F /  25.7 °C 55.2 °F /  12.9 °C 29.9in /  1012.2hPa SW 4.7mph /  7.6km/h 4.6mph /  7.4km/h 45% 0in /  0.0mm CLR
10:09 78.4 °F /  25.8 °C 55.2 °F /  12.9 °C 29.9in /  1012.2hPa SSW 4mph /  6.4km/h 6.9mph /  11.1km/h 45% 0in /  0.0mm CLR
10:14 78.6 °F /  25.9 °C 55.6 °F /  13.1 °C 29.9in /  1012.2hPa SW 4mph /  6.4km/h 6.9mph /  11.1km/h 45% 0in /  0.0mm CLR
10:19 78.8 °F /  26.0 °C 55 °F /  12.8 °C 29.9in /  1012.1hPa WSW 5.2mph /  8.4km/h 8.1mph /  13.0km/h 44% 0in /  0.0mm CLR
10:24 79.2 °F /  26.2 °C 55.4 °F /  13.0 °C 29.9in /  1012.1hPa WSW 5.2mph /  8.4km/h 10.4mph /  16.7km/h 44% 0in /  0.0mm CLR
10:29 79.7 °F /  26.5 °C 55.9 °F /  13.3 °C 29.9in /  1012.1hPa SSW 4.3mph /  6.9km/h 8.1mph /  13.0km/h 44% 0in /  0.0mm CLR
10:34 80.2 °F /  26.8 °C 55 °F /  12.8 °C 29.9in /  1012.0hPa SW 4.3mph /  6.9km/h 11.5mph /  18.5km/h 42% 0in /  0.0mm CLR
10:39 80.4 °F /  26.9 °C 55.2 °F /  12.9 °C 29.9in /  1012.0hPa WSW 5.9mph /  9.5km/h 6.9mph /  11.1km/h 42% 0in /  0.0mm CLR
10:44 81 °F /  27.2 °C 54.3 °F /  12.4 °C 29.9in /  1012.0hPa WSW 5.9mph /  9.5km/h 9.2mph /  14.8km/h 40% 0in /  0.0mm CLR
10:49 81.1 °F /  27.3 °C 53.8 °F /  12.1 °C 29.9in /  1011.9hPa West 5.2mph /  8.4km/h 6.9mph /  11.1km/h 39% 0in /  0.0mm CLR
10:54 81.7 °F /  27.6 °C 54.3 °F /  12.4 °C 29.9in /  1011.9hPa SW 5.2mph /  8.4km/h 5.8mph /  9.3km/h 39% 0in /  0.0mm CLR
10:59 82 °F /  27.8 °C 54.7 °F /  12.6 °C 29.9in /  1011.9hPa SW 4.7mph /  7.6km/h 4.7mph /  7.6km/h 39% 0in /  0.0mm CLR
11:04 82.6 °F /  28.1 °C 54.3 °F /  12.4 °C 29.9in /  1011.8hPa WSW 4.7mph /  7.6km/h 9.2mph /  14.8km/h 38% 0in /  0.0mm CLR
11:09 82.8 °F /  28.2 °C 54.7 °F /  12.6 °C 29.9in /  1011.8hPa South 4.7mph /  7.6km/h 5.8mph /  9.3km/h 38% 0in /  0.0mm CLR
11:14 83.1 °F /  28.4 °C 54.1 °F /  12.3 °C 29.9in /  1011.8hPa WNW 4.7mph /  7.6km/h 6.9mph /  11.1km/h 37% 0in /  0.0mm CLR
11:19 83.7 °F /  28.7 °C 54 °F /  12.2 °C 29.9in /  1011.6hPa WNW 4.3mph /  6.9km/h 6.9mph /  11.1km/h 36% 0in /  0.0mm CLR
11:24 84 °F /  28.9 °C 54.1 °F /  12.3 °C 29.9in /  1011.6hPa ESE 4.3mph /  6.9km/h 8.1mph /  13.0km/h 36% 0in /  0.0mm CLR
11:29 84.4 °F /  29.1 °C 53.8 °F /  12.1 °C 29.9in /  1011.6hPa WNW 4mph /  6.4km/h 4.7mph /  7.6km/h 35% 0in /  0.0mm CLR
11:34 84.6 °F /  29.2 °C 54 °F /  12.2 °C 29.9in /  1011.6hPa SW 4mph /  6.4km/h 3.5mph /  5.6km/h 35% 0in /  0.0mm CLR
11:39 84.9 °F /  29.4 °C 53.4 °F /  11.9 °C 29.9in /  1011.6hPa SW 3.6mph /  5.8km/h 9.7mph /  15.6km/h 34% 0in /  0.0mm CLR
11:44 84.7 °F /  29.3 °C 53.2 °F /  11.8 °C 29.9in /  1011.6hPa WSW 3.6mph /  5.8km/h 3.5mph /  5.6km/h 34% 0in /  0.0mm CLR
11:49 85.3 °F /  29.6 °C 53.8 °F /  12.1 °C 29.9in /  1011.6hPa NNE 3.6mph /  5.8km/h 4.6mph /  7.4km/h 34% 0in /  0.0mm CLR
11:54 85.8 °F /  29.9 °C 53.4 °F /  11.9 °C 29.9in /  1011.6hPa West 3.6mph /  5.8km/h 4.6mph /  7.4km/h 33% 0in /  0.0mm CLR
11:59 86.2 °F /  30.1 °C 53.8 °F /  12.1 °C 29.9in /  1011.6hPa WSW 2.9mph /  4.7km/h 6.9mph /  11.1km/h 33% 0in /  0.0mm CLR
12:04 86.4 °F /  30.2 °C 53.1 °F /  11.7 °C 29.9in /  1011.5hPa SSW 2.9mph /  4.7km/h 6.9mph /  11.1km/h 32% 0in /  0.0mm CLR
12:09 86.7 °F /  30.4 °C 52.5 °F /  11.4 °C 29.9in /  1011.5hPa WSW 5.9mph /  9.5km/h 10.4mph /  16.7km/h 31% 0in /  0.0mm CLR
12:14 86.9 °F /  30.5 °C 52.5 °F /  11.4 °C 29.9in /  1011.5hPa SSW 5.9mph /  9.5km/h 5.8mph /  9.3km/h 31% 0in /  0.0mm CLR
12:19 87.1 °F /  30.6 °C 52.9 °F /  11.6 °C 29.9in /  1011.5hPa SW 5.2mph /  8.4km/h 8.1mph /  13.0km/h 31% 0in /  0.0mm CLR
12:24 87.1 °F /  30.6 °C 52.9 °F /  11.6 °C 29.9in /  1011.5hPa South 5.2mph /  8.4km/h 10.4mph /  16.7km/h 31% 0in /  0.0mm CLR
12:29 87.3 °F /  30.7 °C 52 °F /  11.1 °C 29.9in /  1011.5hPa SW 6.4mph /  10.3km/h 11.5mph /  18.5km/h 30% 0in /  0.0mm CLR
12:34 87.1 °F /  30.6 °C 52 °F /  11.1 °C 29.9in /  1011.5hPa SW 6.4mph /  10.3km/h 8.1mph /  13.0km/h 30% 0in /  0.0mm CLR
12:39 87.3 °F /  30.7 °C 52 °F /  11.1 °C 29.9in /  1011.5hPa WSW 6.2mph /  10.0km/h 6.9mph /  11.1km/h 30% 0in /  0.0mm CLR
12:44 87.4 °F /  30.8 °C 52.2 °F /  11.2 °C 29.9in /  1011.5hPa SW 6.2mph /  10.0km/h 6.9mph /  11.1km/h 30% 0in /  0.0mm CLR
12:49 87.8 °F /  31.0 °C 52.5 °F /  11.4 °C 29.9in /  1011.5hPa SW 4.7mph /  7.6km/h 5.8mph /  9.3km/h 30% 0in /  0.0mm CLR
12:54 88 °F /  31.1 °C 51.6 °F /  10.9 °C 29.9in /  1011.5hPa West 4.7mph /  7.6km/h 2.3mph /  3.7km/h 29% 0in /  0.0mm CLR
12:59 88.7 °F /  31.5 °C 52.3 °F /  11.3 °C 29.9in /  1011.5hPa SSE 2.4mph /  3.9km/h 5.8mph /  9.3km/h 29% 0in /  0.0mm CLR
13:04 88.9 °F /  31.6 °C 52.5 °F /  11.4 °C 29.9in /  1011.4hPa SE 2.4mph /  3.9km/h 4.6mph /  7.4km/h 29% 0in /  0.0mm CLR
13:09 88.9 °F /  31.6 °C 51.6 °F /  10.9 °C 29.9in /  1011.4hPa NW 4.3mph /  6.9km/h 6.9mph /  11.1km/h 28% 0in /  0.0mm CLR
13:14 88.9 °F /  31.6 °C 51.6 °F /  10.9 °C 29.9in /  1011.4hPa WSW 4.3mph /  6.9km/h 8.1mph /  13.0km/h 28% 0in /  0.0mm CLR
13:19 89.4 °F /  31.9 °C 52 °F /  11.1 °C 29.9in /  1011.3hPa WSW 4mph /  6.4km/h 4.6mph /  7.4km/h 28% 0in /  0.0mm CLR
13:24 89.4 °F /  31.9 °C 52 °F /  11.1 °C 29.9in /  1011.3hPa South 4mph /  6.4km/h 9.2mph /  14.8km/h 28% 0in /  0.0mm CLR
13:29 89.4 °F /  31.9 °C 52 °F /  11.1 °C 29.9in /  1011.3hPa SW 5.2mph /  8.4km/h 10.4mph /  16.7km/h 28% 0in /  0.0mm CLR
13:34 89.2 °F /  31.8 °C 52 °F /  11.1 °C 29.9in /  1011.1hPa ESE 5.2mph /  8.4km/h 6.9mph /  11.1km/h 28% 0in /  0.0mm CLR
13:39 89.2 °F /  31.8 °C 52 °F /  11.1 °C 29.9in /  1011.1hPa SE 5.2mph /  8.4km/h 6.9mph /  11.1km/h 28% 0in /  0.0mm CLR
13:44 89.4 °F /  31.9 °C 52 °F /  11.1 °C 29.9in /  1011.1hPa SE 5.2mph /  8.4km/h 5.8mph /  9.3km/h 28% 0in /  0.0mm CLR
13:49 89.4 °F /  31.9 °C 51.1 °F /  10.6 °C 29.9in /  1011.0hPa ESE 4mph /  6.4km/h 4.6mph /  7.4km/h 27% 0in /  0.0mm CLR
13:54 90 °F /  32.2 °C 51.4 °F /  10.8 °C 29.9in /  1011.0hPa SW 4mph /  6.4km/h 5.8mph /  9.3km/h 27% 0in /  0.0mm CLR
13:59 90 °F /  32.2 °C 51.4 °F /  10.8 °C 29.9in /  1011.0hPa East 2.9mph /  4.7km/h 5.4mph /  8.7km/h 27% 0in /  0.0mm CLR
14:04 90.1 °F /  32.3 °C 51.6 °F /  10.9 °C 29.9in /  1010.8hPa WNW 2.9mph /  4.7km/h 3.5mph /  5.6km/h 27% 0in /  0.0mm CLR
14:09 90.9 °F /  32.7 °C 52.3 °F /  11.3 °C 29.9in /  1010.8hPa WNW 3.6mph /  5.8km/h 5.8mph /  9.3km/h 27% 0in /  0.0mm CLR
14:14 91.2 °F /  32.9 °C 52.5 °F /  11.4 °C 29.9in /  1010.8hPa West 3.6mph /  5.8km/h 5.9mph /  9.5km/h 27% 0in /  0.0mm CLR
14:19 91.6 °F /  33.1 °C 51.8 °F /  11.0 °C 29.8in /  1010.6hPa SE 3.1mph /  5.0km/h 7.4mph /  11.9km/h 26% 0in /  0.0mm CLR
14:24 91.4 °F /  33.0 °C 51.6 °F /  10.9 °C 29.8in /  1010.6hPa WNW 3.1mph /  5.0km/h 6.9mph /  11.1km/h 26% 0in /  0.0mm CLR
14:29 91.2 °F /  32.9 °C 51.4 °F /  10.8 °C 29.8in /  1010.6hPa SSW 4.3mph /  6.9km/h 2.4mph /  3.9km/h 26% 0in /  0.0mm CLR
14:34 91.8 °F /  33.2 °C 54 °F /  12.2 °C 29.8in /  1010.4hPa East 4.3mph /  6.9km/h 9.2mph /  14.8km/h 28% 0in /  0.0mm CLR
14:39 91.9 °F /  33.3 °C 55 °F /  12.8 °C 29.8in /  1010.4hPa ESE 5.4mph /  8.7km/h 15.2mph /  24.5km/h 29% 0in /  0.0mm CLR
14:44 91.2 °F /  32.9 °C 54.5 °F /  12.5 °C 29.8in /  1010.4hPa SSW 5.4mph /  8.7km/h 12.7mph /  20.4km/h 29% 0in /  0.0mm CLR
14:49 91.2 °F /  32.9 °C 55.6 °F /  13.1 °C 29.8in /  1010.2hPa SE 9.7mph /  15.6km/h 11.4mph /  18.3km/h 30% 0in /  0.0mm CLR
14:54 91.4 °F /  33.0 °C 54.7 °F /  12.6 °C 29.8in /  1010.2hPa South 9.7mph /  15.6km/h 9.2mph /  14.8km/h 29% 0in /  0.0mm CLR
14:59 91.2 °F /  32.9 °C 54.5 °F /  12.5 °C 29.8in /  1010.2hPa SE 8.1mph /  13.0km/h 15.9mph /  25.6km/h 29% 0in /  0.0mm CLR
15:04 91 °F /  32.8 °C 55.2 °F /  12.9 °C 29.8in /  1010.1hPa SE 8.1mph /  13.0km/h 17.3mph /  27.8km/h 30% 0in /  0.0mm CLR
15:09 91 °F /  32.8 °C 54.3 °F /  12.4 °C 29.8in /  1010.1hPa ENE 11.2mph /  18.0km/h 15mph /  24.1km/h 29% 0in /  0.0mm CLR
15:14 91 °F /  32.8 °C 55.2 °F /  12.9 °C 29.8in /  1010.1hPa ESE 11.2mph /  18.0km/h 18.4mph /  29.6km/h 30% 0in /  0.0mm CLR
15:19 91 °F /  32.8 °C 55.2 °F /  12.9 °C 29.8in /  1009.9hPa East 10.2mph /  16.4km/h 12.7mph /  20.4km/h 30% 0in /  0.0mm CLR
15:24 91.2 °F /  32.9 °C 54.5 °F /  12.5 °C 29.8in /  1009.9hPa SE 10.2mph /  16.4km/h 17.3mph /  27.8km/h 29% 0in /  0.0mm CLR
15:29 91.6 °F /  33.1 °C 54 °F /  12.2 °C 29.8in /  1009.9hPa ESE 10mph /  16.1km/h 18.4mph /  29.6km/h 28% 0in /  0.0mm CLR
15:34 91.6 °F /  33.1 °C 52.9 °F /  11.6 °C 29.8in /  1010.0hPa SSW 10mph /  16.1km/h 13.8mph /  22.2km/h 27% 0in /  0.0mm CLR
15:39 91.8 °F /  33.2 °C 53.1 °F /  11.7 °C 29.8in /  1010.0hPa SSE 9.2mph /  14.8km/h 16.1mph /  25.9km/h 27% 0in /  0.0mm CLR
15:44 91.8 °F /  33.2 °C 53.1 °F /  11.7 °C 29.8in /  1010.0hPa East 9.2mph /  14.8km/h 16.1mph /  25.9km/h 27% 0in /  0.0mm CLR
15:49 91.8 °F /  33.2 °C 53.1 °F /  11.7 °C 29.8in /  1009.7hPa SE 10mph /  16.1km/h 17mph /  27.4km/h 27% 0in /  0.0mm CLR
15:54 91.9 °F /  33.3 °C 52.2 °F /  11.2 °C 29.8in /  1009.7hPa SE 10mph /  16.1km/h 15.2mph /  24.5km/h 26% 0in /  0.0mm CLR
15:59 91.6 °F /  33.1 °C 51.8 °F /  11.0 °C 29.8in /  1009.7hPa SE 11.2mph /  18.0km/h 19.6mph /  31.5km/h 26% 0in /  0.0mm CLR
16:04 91.6 °F /  33.1 °C 51.8 °F /  11.0 °C 29.8in /  1009.5hPa SE 11.2mph /  18.0km/h 17.3mph /  27.8km/h 26% 0in /  0.0mm CLR
16:09 91.9 °F /  33.3 °C 51.1 °F /  10.6 °C 29.8in /  1009.5hPa South 11.2mph /  18.0km/h 13.8mph /  22.2km/h 25% 0in /  0.0mm CLR
16:14 92.1 °F /  33.4 °C 51.3 °F /  10.7 °C 29.8in /  1009.5hPa SE 11.2mph /  18.0km/h 13.8mph /  22.2km/h 25% 0in /  0.0mm CLR
16:19 92.1 °F /  33.4 °C 51.3 °F /  10.7 °C 29.8in /  1009.5hPa ESE 10mph /  16.1km/h 13.8mph /  22.2km/h 25% 0in /  0.0mm CLR
16:24 91.9 °F /  33.3 °C 51.1 °F /  10.6 °C 29.8in /  1009.5hPa SE 10mph /  16.1km/h 15mph /  24.1km/h 25% 0in /  0.0mm CLR
16:29 91.6 °F /  33.1 °C 50.7 °F /  10.4 °C 29.8in /  1009.5hPa East 10mph /  16.1km/h 17.3mph /  27.8km/h 25% 0in /  0.0mm CLR
16:34 91.2 °F /  32.9 °C 50.5 °F /  10.3 °C 29.8in /  1009.3hPa ESE 10mph /  16.1km/h 20.1mph /  32.3km/h 25% 0in /  0.0mm CLR
16:39 91.2 °F /  32.9 °C 50.5 °F /  10.3 °C 29.8in /  1009.3hPa SE 10mph /  16.1km/h 11.5mph /  18.5km/h 25% 0in /  0.0mm CLR
16:44 91.6 °F /  33.1 °C 50.7 °F /  10.4 °C 29.8in /  1009.3hPa SE 12.3mph /  19.8km/h 16.1mph /  25.9km/h 25% 0in /  0.0mm CLR
16:49 91.2 °F /  32.9 °C 50.5 °F /  10.3 °C 29.8in /  1009.3hPa SSE 10.7mph /  17.2km/h 18.4mph /  29.6km/h 25% 0in /  0.0mm CLR
16:54 91.2 °F /  32.9 °C 50.5 °F /  10.3 °C 29.8in /  1009.3hPa ESE 10.7mph /  17.2km/h 15mph /  24.1km/h 25% 0in /  0.0mm CLR
16:59 91.2 °F /  32.9 °C 50.5 °F /  10.3 °C 29.8in /  1009.3hPa SE 10mph /  16.1km/h 15mph /  24.1km/h 25% 0in /  0.0mm CLR
17:04 91.2 °F /  32.9 °C 50.5 °F /  10.3 °C 29.8in /  1009.3hPa ESE 10mph /  16.1km/h 15mph /  24.1km/h 25% 0in /  0.0mm CLR
17:09 91.8 °F /  33.2 °C 49.8 °F /  9.9 °C 29.8in /  1009.3hPa ESE 9.7mph /  15.6km/h 15mph /  24.1km/h 24% 0in /  0.0mm CLR
17:14 91.6 °F /  33.1 °C 49.6 °F /  9.8 °C 29.8in /  1009.3hPa ESE 9.7mph /  15.6km/h 15mph /  24.1km/h 24% 0in /  0.0mm CLR
17:19 91.2 °F /  32.9 °C 50.5 °F /  10.3 °C 29.8in /  1009.2hPa ESE 10mph /  16.1km/h 16.1mph /  25.9km/h 25% 0in /  0.0mm CLR
17:24 91.4 °F /  33.0 °C 49.5 °F /  9.7 °C 29.8in /  1009.2hPa ESE 10mph /  16.1km/h 12.7mph /  20.4km/h 24% 0in /  0.0mm CLR
17:29 91.2 °F /  32.9 °C 49.5 °F /  9.7 °C 29.8in /  1009.2hPa SE 9.2mph /  14.8km/h 16.1mph /  25.9km/h 24% 0in /  0.0mm CLR
17:34 91 °F /  32.8 °C 49.3 °F /  9.6 °C 29.8in /  1009.1hPa ESE 9.2mph /  14.8km/h 16.1mph /  25.9km/h 24% 0in /  0.0mm CLR
17:39 90.7 °F /  32.6 °C 47.8 °F /  8.8 °C 29.8in /  1009.1hPa ESE 10.7mph /  17.2km/h 19.6mph /  31.5km/h 23% 0in /  0.0mm CLR
17:44 90.3 °F /  32.4 °C 47.5 °F /  8.6 °C 29.8in /  1009.1hPa ESE 10.7mph /  17.2km/h 17.3mph /  27.8km/h 23% 0in /  0.0mm CLR
17:49 90.9 °F /  32.7 °C 47.8 °F /  8.8 °C 29.8in /  1009.0hPa ESE 10.2mph /  16.4km/h 12.7mph /  20.4km/h 23% 0in /  0.0mm CLR
17:54 91 °F /  32.8 °C 48 °F /  8.9 °C 29.8in /  1009.0hPa ESE 10.2mph /  16.4km/h 15mph /  24.1km/h 23% 0in /  0.0mm CLR
17:59 90.7 °F /  32.6 °C 48.9 °F /  9.4 °C 29.8in /  1009.0hPa East 10.7mph /  17.2km/h 17.3mph /  27.8km/h 24% 0in /  0.0mm CLR
18:04 90.1 °F /  32.3 °C 48.6 °F /  9.2 °C 29.8in /  1008.9hPa East 10.7mph /  17.2km/h 13.8mph /  22.2km/h 24% 0in /  0.0mm CLR
18:09 90.5 °F /  32.5 °C 49.8 °F /  9.9 °C 29.8in /  1008.9hPa ESE 11.2mph /  18.0km/h 13.8mph /  22.2km/h 25% 0in /  0.0mm CLR
18:14 90.3 °F /  32.4 °C 48.6 °F /  9.2 °C 29.8in /  1008.9hPa SE 11.2mph /  18.0km/h 12.7mph /  20.4km/h 24% 0in /  0.0mm CLR
18:19 90.1 °F /  32.3 °C 48.6 °F /  9.2 °C 29.8in /  1008.8hPa East 11.2mph /  18.0km/h 12.7mph /  20.4km/h 24% 0in /  0.0mm CLR
18:24 90.3 °F /  32.4 °C 48.6 °F /  9.2 °C 29.8in /  1008.8hPa East 11.2mph /  18.0km/h 15mph /  24.1km/h 24% 0in /  0.0mm CLR
18:29 90.1 °F /  32.3 °C 47.3 °F /  8.5 °C 29.8in /  1008.8hPa ESE 8.7mph /  14.0km/h 16.1mph /  25.9km/h 23% 0in /  0.0mm CLR
18:34 90 °F /  32.2 °C 48.4 °F /  9.1 °C 29.8in /  1008.8hPa East 8.7mph /  14.0km/h 12.7mph /  20.4km/h 24% 0in /  0.0mm CLR
18:39 89.8 °F /  32.1 °C 48.2 °F /  9.0 °C 29.8in /  1008.8hPa East 10.7mph /  17.2km/h 11.8mph /  19.0km/h 24% 0in /  0.0mm CLR
18:44 90 °F /  32.2 °C 48.4 °F /  9.1 °C 29.8in /  1008.8hPa East 10.7mph /  17.2km/h 9.2mph /  14.8km/h 24% 0in /  0.0mm CLR
18:49 90 °F /  32.2 °C 48.4 °F /  9.1 °C 29.8in /  1008.8hPa SE 8.1mph /  13.0km/h 12.7mph /  20.4km/h 24% 0in /  0.0mm CLR
18:54 90 °F /  32.2 °C 47.1 °F /  8.4 °C 29.8in /  1008.8hPa ESE 8.1mph /  13.0km/h 15mph /  24.1km/h 23% 0in /  0.0mm CLR
18:59 89.6 °F /  32.0 °C 48 °F /  8.9 °C 29.8in /  1008.8hPa ESE 9.2mph /  14.8km/h 10.4mph /  16.7km/h 24% 0in /  0.0mm CLR
19:04 89.4 °F /  31.9 °C 47.8 °F /  8.8 °C 29.8in /  1008.9hPa SE 9.2mph /  14.8km/h 11.5mph /  18.5km/h 24% 0in /  0.0mm CLR
19:09 89.4 °F /  31.9 °C 47.8 °F /  8.8 °C 29.8in /  1008.9hPa NE 7.4mph /  11.9km/h 8.7mph /  14.0km/h 24% 0in /  0.0mm CLR
19:14 89.4 °F /  31.9 °C 47.8 °F /  8.8 °C 29.8in /  1008.9hPa East 7.4mph /  11.9km/h 9.2mph /  14.8km/h 24% 0in /  0.0mm CLR
19:19 89.2 °F /  31.8 °C 47.7 °F /  8.7 °C 29.8in /  1008.9hPa ESE 7.6mph /  12.2km/h 12.7mph /  20.4km/h 24% 0in /  0.0mm CLR
19:24 89.1 °F /  31.7 °C 48.7 °F /  9.3 °C 29.8in /  1008.9hPa ESE 7.6mph /  12.2km/h 16.1mph /  25.9km/h 25% 0in /  0.0mm CLR
19:29 88.9 °F /  31.6 °C 48.6 °F /  9.2 °C 29.8in /  1008.9hPa SE 9.2mph /  14.8km/h 13.5mph /  21.7km/h 25% 0in /  0.0mm CLR
19:34 88.7 °F /  31.5 °C 48.4 °F /  9.1 °C 29.8in /  1008.8hPa East 9.2mph /  14.8km/h 10.4mph /  16.7km/h 25% 0in /  0.0mm CLR
19:39 88.5 °F /  31.4 °C 49.3 °F /  9.6 °C 29.8in /  1008.8hPa ESE 8.1mph /  13.0km/h 13.8mph /  22.2km/h 26% 0in /  0.0mm CLR
19:44 88.3 °F /  31.3 °C 49.1 °F /  9.5 °C 29.8in /  1008.8hPa ESE 8.1mph /  13.0km/h 10.7mph /  17.2km/h 26% 0in /  0.0mm CLR
19:49 88.5 °F /  31.4 °C 49.3 °F /  9.6 °C 29.8in /  1008.8hPa NE 7.6mph /  12.2km/h 11.5mph /  18.5km/h 26% 0in /  0.0mm CLR
19:54 88.3 °F /  31.3 °C 49.1 °F /  9.5 °C 29.8in /  1008.8hPa ESE 7.6mph /  12.2km/h 9.2mph /  14.8km/h 26% 0in /  0.0mm CLR
19:59 88.3 °F /  31.3 °C 50.2 °F /  10.1 °C 29.8in /  1008.8hPa ESE 7.6mph /  12.2km/h 10.4mph /  16.7km/h 27% 0in /  0.0mm CLR
20:04 88.3 °F /  31.3 °C 50.2 °F /  10.1 °C 29.8in /  1008.8hPa East 7.6mph /  12.2km/h 10.4mph /  16.7km/h 27% 0in /  0.0mm CLR
20:09 88.2 °F /  31.2 °C 50 °F /  10.0 °C 29.8in /  1008.8hPa ESE 6.4mph /  10.3km/h 7.4mph /  11.9km/h 27% 0in /  0.0mm CLR
20:14 88.3 °F /  31.3 °C 50.2 °F /  10.1 °C 29.8in /  1008.8hPa ESE 6.4mph /  10.3km/h 6.9mph /  11.1km/h 27% 0in /  0.0mm CLR
20:19 88.2 °F /  31.2 °C 50 °F /  10.0 °C 29.8in /  1008.7hPa ESE 4.7mph /  7.6km/h 6.9mph /  11.1km/h 27% 0in /  0.0mm CLR
20:24 88 °F /  31.1 °C 50.7 °F /  10.4 °C 29.8in /  1008.7hPa SE 4.7mph /  7.6km/h 9.2mph /  14.8km/h 28% 0in /  0.0mm CLR
20:29 87.8 °F /  31.0 °C 50.5 °F /  10.3 °C 29.8in /  1008.7hPa ESE 5.4mph /  8.7km/h 6.9mph /  11.1km/h 28% 0in /  0.0mm CLR
20:34 87.8 °F /  31.0 °C 50.5 °F /  10.3 °C 29.8in /  1008.8hPa East 5.4mph /  8.7km/h 5.8mph /  9.3km/h 28% 0in /  0.0mm CLR
20:39 87.6 °F /  30.9 °C 51.4 °F /  10.8 °C 29.8in /  1008.8hPa ENE 3.6mph /  5.8km/h 5.8mph /  9.3km/h 29% 0in /  0.0mm CLR
20:44 87.6 °F /  30.9 °C 52.3 °F /  11.3 °C 29.8in /  1008.8hPa ESE 3.6mph /  5.8km/h 5.8mph /  9.3km/h 30% 0in /  0.0mm CLR
20:49 87.4 °F /  30.8 °C 52.2 °F /  11.2 °C 29.8in /  1008.8hPa ENE 4mph /  6.4km/h 6.9mph /  11.1km/h 30% 0in /  0.0mm CLR
20:54 87.3 °F /  30.7 °C 52 °F /  11.1 °C 29.8in /  1008.8hPa NNE 4mph /  6.4km/h 3.5mph /  5.6km/h 30% 0in /  0.0mm CLR
20:59 87.3 °F /  30.7 °C 52.9 °F /  11.6 °C 29.8in /  1008.8hPa ENE 2.4mph /  3.9km/h 5.2mph /  8.4km/h 31% 0in /  0.0mm CLR
21:04 87.1 °F /  30.6 °C 53.6 °F /  12.0 °C 29.8in /  1008.9hPa NE 2.4mph /  3.9km/h 5.8mph /  9.3km/h 32% 0in /  0.0mm CLR
21:09 86.4 °F /  30.2 °C 54.7 °F /  12.6 °C 29.8in /  1008.9hPa East 3.6mph /  5.8km/h 5.8mph /  9.3km/h 34% 0in /  0.0mm CLR
21:14 86 °F /  30.0 °C 55.2 °F /  12.9 °C 29.8in /  1008.9hPa North 3.6mph /  5.8km/h 3.5mph /  5.6km/h 35% 0in /  0.0mm CLR
21:19 85.6 °F /  29.8 °C 55.6 °F /  13.1 °C 29.8in /  1008.8hPa NE 3.6mph /  5.8km/h 6.9mph /  11.1km/h 36% 0in /  0.0mm CLR
21:24 85.3 °F /  29.6 °C 55.2 °F /  12.9 °C 29.8in /  1008.8hPa NE 3.6mph /  5.8km/h 6.4mph /  10.3km/h 36% 0in /  0.0mm CLR
21:29 84.9 °F /  29.4 °C 55.8 °F /  13.2 °C 29.8in /  1008.8hPa NE 5.2mph /  8.4km/h 5.9mph /  9.5km/h 37% 0in /  0.0mm CLR
21:34 84.7 °F /  29.3 °C 56.3 °F /  13.5 °C 29.8in /  1008.9hPa NE 5.2mph /  8.4km/h 5.8mph /  9.3km/h 38% 0in /  0.0mm CLR
21:39 84.4 °F /  29.1 °C 53.8 °F /  12.1 °C 29.8in /  1008.9hPa NNE 4.3mph /  6.9km/h 5.2mph /  8.4km/h 35% 0in /  0.0mm CLR
21:44 84 °F /  28.9 °C 54.1 °F /  12.3 °C 29.8in /  1008.9hPa NE 4.3mph /  6.9km/h 5.8mph /  9.3km/h 36% 0in /  0.0mm CLR
21:49 83.8 °F /  28.8 °C 54 °F /  12.2 °C 29.8in /  1008.9hPa NE 4.3mph /  6.9km/h 4.6mph /  7.4km/h 36% 0in /  0.0mm CLR
21:54 83.5 °F /  28.6 °C 54.5 °F /  12.5 °C 29.8in /  1008.9hPa NE 4.3mph /  6.9km/h 6.9mph /  11.1km/h 37% 0in /  0.0mm CLR
21:59 83.1 °F /  28.4 °C 54.9 °F /  12.7 °C 29.8in /  1008.9hPa ENE 4mph /  6.4km/h 5.8mph /  9.3km/h 38% 0in /  0.0mm CLR
22:04 82.8 °F /  28.2 °C 55.2 °F /  12.9 °C 29.8in /  1009.1hPa NNE 4mph /  6.4km/h 4.6mph /  7.4km/h 39% 0in /  0.0mm CLR
22:09 82.6 °F /  28.1 °C 56.5 °F /  13.6 °C 29.8in /  1009.1hPa NE 4mph /  6.4km/h 9.2mph /  14.8km/h 41% 0in /  0.0mm CLR
22:14 81.7 °F /  27.6 °C 56.5 °F /  13.6 °C 29.8in /  1009.1hPa NE 4mph /  6.4km/h 8.7mph /  14.0km/h 42% 0in /  0.0mm CLR
22:19 80.6 °F /  27.0 °C 57.9 °F /  14.4 °C 29.8in /  1009.4hPa NNE 6.2mph /  10.0km/h 10.4mph /  16.7km/h 46% 0in /  0.0mm CLR
22:24 79.7 °F /  26.5 °C 60.1 °F /  15.6 °C 29.8in /  1009.4hPa North 6.2mph /  10.0km/h 8.1mph /  13.0km/h 51% 0in /  0.0mm CLR
22:29 78.8 °F /  26.0 °C 60.3 °F /  15.7 °C 29.8in /  1009.4hPa ENE 6.2mph /  10.0km/h 8.5mph /  13.7km/h 53% 0in /  0.0mm CLR
22:34 77.9 °F /  25.5 °C 61.3 °F /  16.3 °C 29.8in /  1009.6hPa NE 6.2mph /  10.0km/h 9.2mph /  14.8km/h 57% 0in /  0.0mm CLR
22:39 77.4 °F /  25.2 °C 62.4 °F /  16.9 °C 29.8in /  1009.6hPa NNE 6.9mph /  11.1km/h 11.5mph /  18.5km/h 60% 0in /  0.0mm CLR
22:44 77 °F /  25.0 °C 62.4 °F /  16.9 °C 29.8in /  1009.6hPa NNE 6.9mph /  11.1km/h 9.2mph /  14.8km/h 61% 0in /  0.0mm CLR
22:49 76.6 °F /  24.8 °C 62.6 °F /  17.0 °C 29.8in /  1009.8hPa NE 5.9mph /  9.5km/h 8.1mph /  13.0km/h 62% 0in /  0.0mm CLR
22:54 76.6 °F /  24.8 °C 63.1 °F /  17.3 °C 29.8in /  1009.8hPa NE 5.9mph /  9.5km/h 8.1mph /  13.0km/h 63% 0in /  0.0mm CLR
22:59 76.5 °F /  24.7 °C 63 °F /  17.2 °C 29.8in /  1009.8hPa NE 5.2mph /  8.4km/h 5.8mph /  9.3km/h 63% 0in /  0.0mm CLR
23:04 76.5 °F /  24.7 °C 63.3 °F /  17.4 °C 29.8in /  1010.0hPa NNE 5.2mph /  8.4km/h 5.8mph /  9.3km/h 64% 0in /  0.0mm CLR
23:09 76.5 °F /  24.7 °C 63.3 °F /  17.4 °C 29.8in /  1010.0hPa NNE 4mph /  6.4km/h 8.1mph /  13.0km/h 64% 0in /  0.0mm CLR
23:14 76.3 °F /  24.6 °C 63.7 °F /  17.6 °C 29.8in /  1010.0hPa North 4mph /  6.4km/h 9.2mph /  14.8km/h 65% 0in /  0.0mm CLR
23:19 75.9 °F /  24.4 °C 63.7 °F /  17.6 °C 29.8in /  1010.0hPa NE 4.7mph /  7.6km/h 4.3mph /  6.9km/h 66% 0in /  0.0mm CLR
23:24 75.7 °F /  24.3 °C 64 °F /  17.8 °C 29.8in /  1010.0hPa NNE 4.7mph /  7.6km/h 6.9mph /  11.1km/h 67% 0in /  0.0mm CLR
23:29 75.6 °F /  24.2 °C 63.9 °F /  17.7 °C 29.8in /  1010.0hPa NE 4.3mph /  6.9km/h 4.6mph /  7.4km/h 67% 0in /  0.0mm CLR
23:34 75.6 °F /  24.2 °C 64.2 °F /  17.9 °C 29.8in /  1010.2hPa NE 4.3mph /  6.9km/h 4.6mph /  7.4km/h 68% 0in /  0.0mm CLR
23:39 75.4 °F /  24.1 °C 64.6 °F /  18.1 °C 29.8in /  1010.2hPa NE 2.9mph /  4.7km/h 5.4mph /  8.7km/h 69% 0in /  0.0mm CLR
23:44 75.2 °F /  24.0 °C 64.2 °F /  17.9 °C 29.8in /  1010.2hPa NE 2.9mph /  4.7km/h 4.6mph /  7.4km/h 69% 0in /  0.0mm CLR
23:49 75 °F /  23.9 °C 64.2 °F /  17.9 °C 29.8in /  1010.2hPa North 2.9mph /  4.7km/h 4.6mph /  7.4km/h 69% 0in /  0.0mm CLR
23:54 75 °F /  23.9 °C 64.2 °F /  17.9 °C 29.8in /  1010.2hPa NE 2.9mph /  4.7km/h 4.6mph /  7.4km/h 69% 0in /  0.0mm CLR
23:59 74.8 °F /  23.8 °C 64.4 °F /  18.0 °C 29.8in /  1010.2hPa North 2.4mph /  3.9km/h 4.7mph /  7.6km/h 70% 0in /  0.0mm CLR
Murcia-Puente Tocinos, España
Compliments of Weather Underground - 2.75 mb

La estación de MeteoMurcia.com, publica sus datos en los siguientes proyectos:

Weather Underground PWS IMURCIAP2 Meteoclimatic www.awekas.at

W3Counter
Web Analytics